sensor_id;sensor_type;location;lat;lon;timestamp;P1;durP1;ratioP1;P2;durP2;ratioP2
27895;SDS011;15241;48.374;10.876;2023-03-19T00:01:19;22.25;;;14.45;;
27895;SDS011;15241;48.374;10.876;2023-03-19T00:06:18;24.35;;;13.72;;
27895;SDS011;15241;48.374;10.876;2023-03-19T00:11:17;23.47;;;14.03;;
27895;SDS011;15241;48.374;10.876;2023-03-19T00:16:16;21.48;;;13.93;;
27895;SDS011;15241;48.374;10.876;2023-03-19T00:21:15;19.80;;;13.22;;
27895;SDS011;15241;48.374;10.876;2023-03-19T00:26:14;22.15;;;13.55;;
27895;SDS011;15241;48.374;10.876;2023-03-19T00:31:13;20.27;;;13.25;;
27895;SDS011;15241;48.374;10.876;2023-03-19T00:36:14;18.82;;;12.68;;
27895;SDS011;15241;48.374;10.876;2023-03-19T00:41:13;17.20;;;10.48;;
27895;SDS011;15241;48.374;10.876;2023-03-19T00:46:12;20.37;;;11.10;;
27895;SDS011;15241;48.374;10.876;2023-03-19T00:51:11;15.70;;;10.23;;
27895;SDS011;15241;48.374;10.876;2023-03-19T00:56:10;12.93;;;9.25;;
27895;SDS011;15241;48.374;10.876;2023-03-19T01:01:12;17.17;;;9.38;;
27895;SDS011;15241;48.374;10.876;2023-03-19T01:06:12;15.35;;;9.58;;
27895;SDS011;15241;48.374;10.876;2023-03-19T01:11:12;15.25;;;8.65;;
27895;SDS011;15241;48.374;10.876;2023-03-19T01:16:11;15.83;;;9.23;;
27895;SDS011;15241;48.374;10.876;2023-03-19T01:21:11;13.80;;;7.78;;
27895;SDS011;15241;48.374;10.876;2023-03-19T01:26:10;11.53;;;8.03;;
27895;SDS011;15241;48.374;10.876;2023-03-19T01:31:09;12.37;;;7.58;;
27895;SDS011;15241;48.374;10.876;2023-03-19T01:36:09;11.05;;;6.95;;
27895;SDS011;15241;48.374;10.876;2023-03-19T01:41:08;10.10;;;6.17;;
27895;SDS011;15241;48.374;10.876;2023-03-19T01:46:08;12.13;;;6.70;;
27895;SDS011;15241;48.374;10.876;2023-03-19T01:51:11;10.97;;;6.70;;
27895;SDS011;15241;48.374;10.876;2023-03-19T01:56:13;14.18;;;6.67;;
27895;SDS011;15241;48.374;10.876;2023-03-19T02:01:14;12.33;;;6.65;;
27895;SDS011;15241;48.374;10.876;2023-03-19T02:06:14;12.58;;;7.15;;
27895;SDS011;15241;48.374;10.876;2023-03-19T02:11:14;13.03;;;7.30;;
27895;SDS011;15241;48.374;10.876;2023-03-19T02:16:13;10.65;;;6.65;;
27895;SDS011;15241;48.374;10.876;2023-03-19T02:21:13;16.32;;;7.08;;
27895;SDS011;15241;48.374;10.876;2023-03-19T02:26:13;12.93;;;6.92;;
27895;SDS011;15241;48.374;10.876;2023-03-19T02:31:15;10.95;;;7.00;;
27895;SDS011;15241;48.374;10.876;2023-03-19T02:36:15;10.85;;;6.42;;
27895;SDS011;15241;48.374;10.876;2023-03-19T02:41:17;11.10;;;6.78;;
27895;SDS011;15241;48.374;10.876;2023-03-19T02:46:18;15.53;;;7.35;;
27895;SDS011;15241;48.374;10.876;2023-03-19T02:51:17;13.93;;;7.15;;
27895;SDS011;15241;48.374;10.876;2023-03-19T02:56:16;12.10;;;6.90;;
27895;SDS011;15241;48.374;10.876;2023-03-19T03:01:15;9.90;;;6.75;;
27895;SDS011;15241;48.374;10.876;2023-03-19T03:06:13;10.63;;;6.95;;
27895;SDS011;15241;48.374;10.876;2023-03-19T03:11:12;11.25;;;7.40;;
27895;SDS011;15241;48.374;10.876;2023-03-19T03:16:11;12.07;;;6.80;;
27895;SDS011;15241;48.374;10.876;2023-03-19T03:21:10;11.38;;;7.12;;
27895;SDS011;15241;48.374;10.876;2023-03-19T03:26:09;13.18;;;7.90;;
27895;SDS011;15241;48.374;10.876;2023-03-19T03:31:08;13.13;;;7.72;;
27895;SDS011;15241;48.374;10.876;2023-03-19T03:36:08;12.20;;;8.08;;
27895;SDS011;15241;48.374;10.876;2023-03-19T03:41:07;15.30;;;8.18;;
27895;SDS011;15241;48.374;10.876;2023-03-19T03:46:06;16.40;;;8.40;;
27895;SDS011;15241;48.374;10.876;2023-03-19T03:51:05;13.75;;;6.80;;
27895;SDS011;15241;48.374;10.876;2023-03-19T03:56:05;11.03;;;6.17;;
27895;SDS011;15241;48.374;10.876;2023-03-19T04:01:05;7.20;;;5.65;;
27895;SDS011;15241;48.374;10.876;2023-03-19T04:06:04;9.98;;;6.58;;
27895;SDS011;15241;48.374;10.876;2023-03-19T04:11:06;8.30;;;5.95;;
27895;SDS011;15241;48.374;10.876;2023-03-19T04:16:06;8.28;;;5.62;;
27895;SDS011;15241;48.374;10.876;2023-03-19T04:21:06;9.68;;;5.90;;
27895;SDS011;15241;48.374;10.876;2023-03-19T04:26:05;10.13;;;5.55;;
27895;SDS011;15241;48.374;10.876;2023-03-19T04:31:05;13.53;;;6.47;;
27895;SDS011;15241;48.374;10.876;2023-03-19T04:36:05;11.30;;;5.95;;
27895;SDS011;15241;48.374;10.876;2023-03-19T04:41:05;12.18;;;7.30;;
27895;SDS011;15241;48.374;10.876;2023-03-19T04:46:04;10.03;;;6.35;;
27895;SDS011;15241;48.374;10.876;2023-03-19T04:51:04;9.35;;;6.12;;
27895;SDS011;15241;48.374;10.876;2023-03-19T04:56:03;7.40;;;5.97;;
27895;SDS011;15241;48.374;10.876;2023-03-19T05:01:04;11.18;;;6.95;;
27895;SDS011;15241;48.374;10.876;2023-03-19T05:06:03;15.60;;;7.00;;
27895;SDS011;15241;48.374;10.876;2023-03-19T05:11:03;10.90;;;7.42;;
27895;SDS011;15241;48.374;10.876;2023-03-19T05:16:02;10.45;;;6.78;;
27895;SDS011;15241;48.374;10.876;2023-03-19T05:21:03;13.30;;;7.22;;
27895;SDS011;15241;48.374;10.876;2023-03-19T05:26:05;10.45;;;6.58;;
27895;SDS011;15241;48.374;10.876;2023-03-19T05:31:05;12.88;;;7.65;;
27895;SDS011;15241;48.374;10.876;2023-03-19T05:36:04;11.90;;;6.62;;
27895;SDS011;15241;48.374;10.876;2023-03-19T05:41:04;10.70;;;6.90;;
27895;SDS011;15241;48.374;10.876;2023-03-19T05:46:04;12.28;;;6.50;;
27895;SDS011;15241;48.374;10.876;2023-03-19T05:51:03;11.70;;;6.62;;
27895;SDS011;15241;48.374;10.876;2023-03-19T05:56:03;11.78;;;6.42;;
27895;SDS011;15241;48.374;10.876;2023-03-19T06:01:02;11.97;;;6.95;;
27895;SDS011;15241;48.374;10.876;2023-03-19T06:06:02;10.13;;;6.35;;
27895;SDS011;15241;48.374;10.876;2023-03-19T06:11:02;12.30;;;6.15;;
27895;SDS011;15241;48.374;10.876;2023-03-19T06:16:01;8.85;;;6.28;;
27895;SDS011;15241;48.374;10.876;2023-03-19T06:21:00;13.60;;;6.72;;
27895;SDS011;15241;48.374;10.876;2023-03-19T06:26:00;6.72;;;5.55;;
27895;SDS011;15241;48.374;10.876;2023-03-19T06:30:59;11.75;;;5.70;;
27895;SDS011;15241;48.374;10.876;2023-03-19T06:35:58;7.05;;;4.72;;
27895;SDS011;15241;48.374;10.876;2023-03-19T06:40:57;8.58;;;4.85;;
27895;SDS011;15241;48.374;10.876;2023-03-19T06:45:56;9.08;;;5.17;;
27895;SDS011;15241;48.374;10.876;2023-03-19T06:50:55;8.23;;;4.70;;
27895;SDS011;15241;48.374;10.876;2023-03-19T06:55:54;6.55;;;4.62;;
27895;SDS011;15241;48.374;10.876;2023-03-19T07:00:54;9.10;;;5.03;;
27895;SDS011;15241;48.374;10.876;2023-03-19T07:05:53;8.35;;;5.10;;
27895;SDS011;15241;48.374;10.876;2023-03-19T07:10:52;6.35;;;4.70;;
27895;SDS011;15241;48.374;10.876;2023-03-19T07:15:51;9.30;;;4.75;;
27895;SDS011;15241;48.374;10.876;2023-03-19T07:20:50;6.67;;;4.72;;
27895;SDS011;15241;48.374;10.876;2023-03-19T07:25:49;5.35;;;4.10;;
27895;SDS011;15241;48.374;10.876;2023-03-19T07:30:49;8.40;;;4.15;;
27895;SDS011;15241;48.374;10.876;2023-03-19T07:35:48;6.97;;;4.20;;
27895;SDS011;15241;48.374;10.876;2023-03-19T07:40:48;6.00;;;4.60;;
27895;SDS011;15241;48.374;10.876;2023-03-19T07:45:47;9.78;;;4.92;;
27895;SDS011;15241;48.374;10.876;2023-03-19T07:50:46;9.43;;;4.25;;
27895;SDS011;15241;48.374;10.876;2023-03-19T07:55:47;6.95;;;4.97;;
27895;SDS011;15241;48.374;10.876;2023-03-19T08:00:46;5.97;;;4.12;;
27895;SDS011;15241;48.374;10.876;2023-03-19T08:05:48;5.10;;;3.75;;
27895;SDS011;15241;48.374;10.876;2023-03-19T08:10:47;7.53;;;4.58;;
27895;SDS011;15241;48.374;10.876;2023-03-19T08:15:46;8.20;;;5.17;;
27895;SDS011;15241;48.374;10.876;2023-03-19T08:20:45;8.13;;;5.10;;
27895;SDS011;15241;48.374;10.876;2023-03-19T08:25:44;6.08;;;4.47;;
27895;SDS011;15241;48.374;10.876;2023-03-19T08:30:43;8.45;;;4.62;;
27895;SDS011;15241;48.374;10.876;2023-03-19T08:35:42;6.85;;;4.87;;
27895;SDS011;15241;48.374;10.876;2023-03-19T08:40:41;7.55;;;4.65;;
27895;SDS011;15241;48.374;10.876;2023-03-19T08:45:40;7.15;;;4.55;;
27895;SDS011;15241;48.374;10.876;2023-03-19T08:50:39;6.33;;;4.45;;
27895;SDS011;15241;48.374;10.876;2023-03-19T08:55:38;7.10;;;4.22;;
27895;SDS011;15241;48.374;10.876;2023-03-19T09:00:37;5.97;;;3.98;;
27895;SDS011;15241;48.374;10.876;2023-03-19T09:05:36;7.60;;;4.62;;
27895;SDS011;15241;48.374;10.876;2023-03-19T09:10:35;5.47;;;4.25;;
27895;SDS011;15241;48.374;10.876;2023-03-19T09:15:34;6.95;;;4.80;;
27895;SDS011;15241;48.374;10.876;2023-03-19T09:20:33;6.17;;;4.50;;
27895;SDS011;15241;48.374;10.876;2023-03-19T09:25:33;7.62;;;4.90;;
27895;SDS011;15241;48.374;10.876;2023-03-19T09:30:32;6.05;;;3.70;;
27895;SDS011;15241;48.374;10.876;2023-03-19T09:35:31;6.78;;;4.17;;
27895;SDS011;15241;48.374;10.876;2023-03-19T09:40:32;4.95;;;3.83;;
27895;SDS011;15241;48.374;10.876;2023-03-19T09:45:39;4.87;;;4.17;;
27895;SDS011;15241;48.374;10.876;2023-03-19T09:50:38;6.20;;;4.17;;
27895;SDS011;15241;48.374;10.876;2023-03-19T09:55:39;7.00;;;4.25;;
27895;SDS011;15241;48.374;10.876;2023-03-19T10:00:40;7.58;;;4.97;;
27895;SDS011;15241;48.374;10.876;2023-03-19T10:05:43;5.05;;;4.55;;
27895;SDS011;15241;48.374;10.876;2023-03-19T10:10:47;6.63;;;4.37;;
27895;SDS011;15241;48.374;10.876;2023-03-19T10:15:48;6.55;;;4.42;;
27895;SDS011;15241;48.374;10.876;2023-03-19T10:20:50;6.15;;;3.85;;
27895;SDS011;15241;48.374;10.876;2023-03-19T10:25:53;5.15;;;3.95;;
27895;SDS011;15241;48.374;10.876;2023-03-19T10:30:56;5.35;;;4.03;;
27895;SDS011;15241;48.374;10.876;2023-03-19T10:36:00;5.95;;;3.70;;
27895;SDS011;15241;48.374;10.876;2023-03-19T10:41:03;4.65;;;3.50;;
27895;SDS011;15241;48.374;10.876;2023-03-19T10:46:11;6.35;;;3.65;;
27895;SDS011;15241;48.374;10.876;2023-03-19T10:51:10;6.03;;;3.75;;
27895;SDS011;15241;48.374;10.876;2023-03-19T10:56:18;3.72;;;3.25;;
27895;SDS011;15241;48.374;10.876;2023-03-19T11:01:18;5.08;;;3.20;;
27895;SDS011;15241;48.374;10.876;2023-03-19T11:06:18;3.85;;;2.90;;
27895;SDS011;15241;48.374;10.876;2023-03-19T11:11:23;5.72;;;3.37;;
27895;SDS011;15241;48.374;10.876;2023-03-19T11:16:24;7.55;;;3.70;;
27895;SDS011;15241;48.374;10.876;2023-03-19T11:21:27;5.47;;;3.40;;
27895;SDS011;15241;48.374;10.876;2023-03-19T11:26:33;4.47;;;3.40;;
27895;SDS011;15241;48.374;10.876;2023-03-19T11:31:35;5.92;;;3.60;;
27895;SDS011;15241;48.374;10.876;2023-03-19T11:36:38;5.20;;;3.17;;
27895;SDS011;15241;48.374;10.876;2023-03-19T11:41:44;6.53;;;3.50;;
27895;SDS011;15241;48.374;10.876;2023-03-19T11:46:48;3.80;;;3.20;;
27895;SDS011;15241;48.374;10.876;2023-03-19T11:51:50;6.60;;;2.70;;
27895;SDS011;15241;48.374;10.876;2023-03-19T11:56:53;6.35;;;3.17;;
27895;SDS011;15241;48.374;10.876;2023-03-19T12:02:00;3.27;;;2.80;;
27895;SDS011;15241;48.374;10.876;2023-03-19T12:12:10;5.37;;;3.02;;
27895;SDS011;15241;48.374;10.876;2023-03-19T12:17:16;3.55;;;2.47;;
27895;SDS011;15241;48.374;10.876;2023-03-19T12:22:27;2.75;;;2.52;;
27895;SDS011;15241;48.374;10.876;2023-03-19T12:27:31;2.98;;;2.67;;
27895;SDS011;15241;48.374;10.876;2023-03-19T12:32:35;2.60;;;2.20;;
27895;SDS011;15241;48.374;10.876;2023-03-19T12:37:39;3.10;;;2.58;;
27895;SDS011;15241;48.374;10.876;2023-03-19T12:42:47;3.55;;;2.45;;
27895;SDS011;15241;48.374;10.876;2023-03-19T12:47:46;3.22;;;2.25;;
27895;SDS011;15241;48.374;10.876;2023-03-19T12:52:49;3.87;;;2.60;;
27895;SDS011;15241;48.374;10.876;2023-03-19T12:57:50;4.03;;;2.90;;
27895;SDS011;15241;48.374;10.876;2023-03-19T13:02:52;4.20;;;2.85;;
27895;SDS011;15241;48.374;10.876;2023-03-19T13:08:04;3.37;;;2.55;;
27895;SDS011;15241;48.374;10.876;2023-03-19T13:13:08;4.90;;;2.90;;
27895;SDS011;15241;48.374;10.876;2023-03-19T13:18:13;3.95;;;3.02;;
27895;SDS011;15241;48.374;10.876;2023-03-19T13:23:16;4.60;;;3.42;;
27895;SDS011;15241;48.374;10.876;2023-03-19T13:28:19;3.53;;;3.13;;
27895;SDS011;15241;48.374;10.876;2023-03-19T13:33:21;4.03;;;3.33;;
27895;SDS011;15241;48.374;10.876;2023-03-19T13:38:21;4.17;;;3.60;;
27895;SDS011;15241;48.374;10.876;2023-03-19T13:49:06;3.67;;;2.80;;
27895;SDS011;15241;48.374;10.876;2023-03-19T13:54:36;3.87;;;3.12;;
27895;SDS011;15241;48.374;10.876;2023-03-19T13:59:36;3.67;;;2.70;;
27895;SDS011;15241;48.374;10.876;2023-03-19T14:04:36;3.83;;;2.70;;
27895;SDS011;15241;48.374;10.876;2023-03-19T14:09:39;4.58;;;2.83;;
27895;SDS011;15241;48.374;10.876;2023-03-19T14:14:40;3.30;;;2.85;;
27895;SDS011;15241;48.374;10.876;2023-03-19T14:19:41;4.50;;;3.27;;
27895;SDS011;15241;48.374;10.876;2023-03-19T14:24:40;4.12;;;2.75;;
27895;SDS011;15241;48.374;10.876;2023-03-19T14:29:45;4.05;;;2.87;;
27895;SDS011;15241;48.374;10.876;2023-03-19T14:34:45;3.67;;;3.00;;
27895;SDS011;15241;48.374;10.876;2023-03-19T14:39:48;4.80;;;3.00;;
27895;SDS011;15241;48.374;10.876;2023-03-19T14:50:50;2.80;;;2.60;;
27895;SDS011;15241;48.374;10.876;2023-03-19T15:01:10;4.45;;;2.58;;
27895;SDS011;15241;48.374;10.876;2023-03-19T15:06:11;5.58;;;3.50;;
27895;SDS011;15241;48.374;10.876;2023-03-19T15:11:17;5.05;;;3.05;;
27895;SDS011;15241;48.374;10.876;2023-03-19T15:16:27;4.08;;;2.90;;
27895;SDS011;15241;48.374;10.876;2023-03-19T15:21:30;4.47;;;3.17;;
27895;SDS011;15241;48.374;10.876;2023-03-19T15:26:29;4.70;;;3.17;;
27895;SDS011;15241;48.374;10.876;2023-03-19T15:31:40;4.72;;;2.90;;
27895;SDS011;15241;48.374;10.876;2023-03-19T15:36:40;4.10;;;3.30;;
27895;SDS011;15241;48.374;10.876;2023-03-19T15:41:41;4.92;;;2.90;;
27895;SDS011;15241;48.374;10.876;2023-03-19T15:46:42;5.78;;;3.08;;
27895;SDS011;15241;48.374;10.876;2023-03-19T15:51:42;4.37;;;2.92;;
27895;SDS011;15241;48.374;10.876;2023-03-19T15:56:44;5.83;;;2.70;;
27895;SDS011;15241;48.374;10.876;2023-03-19T16:01:45;2.87;;;2.47;;
27895;SDS011;15241;48.374;10.876;2023-03-19T16:06:45;3.75;;;2.58;;
27895;SDS011;15241;48.374;10.876;2023-03-19T16:11:45;5.12;;;2.70;;
27895;SDS011;15241;48.374;10.876;2023-03-19T16:16:45;3.47;;;2.40;;
27895;SDS011;15241;48.374;10.876;2023-03-19T16:21:45;3.60;;;3.22;;
27895;SDS011;15241;48.374;10.876;2023-03-19T16:26:45;5.58;;;2.90;;
27895;SDS011;15241;48.374;10.876;2023-03-19T16:31:47;4.03;;;2.92;;
27895;SDS011;15241;48.374;10.876;2023-03-19T16:36:54;6.15;;;2.83;;
27895;SDS011;15241;48.374;10.876;2023-03-19T16:42:12;5.03;;;3.17;;
27895;SDS011;15241;48.374;10.876;2023-03-19T16:47:13;6.87;;;2.80;;
27895;SDS011;15241;48.374;10.876;2023-03-19T16:52:13;8.40;;;3.40;;
27895;SDS011;15241;48.374;10.876;2023-03-19T16:57:14;6.33;;;3.20;;
27895;SDS011;15241;48.374;10.876;2023-03-19T17:02:15;4.95;;;3.17;;
27895;SDS011;15241;48.374;10.876;2023-03-19T17:07:15;6.20;;;2.80;;
27895;SDS011;15241;48.374;10.876;2023-03-19T17:12:14;4.55;;;3.20;;
27895;SDS011;15241;48.374;10.876;2023-03-19T17:17:15;4.30;;;2.55;;
27895;SDS011;15241;48.374;10.876;2023-03-19T17:22:16;7.42;;;3.77;;
27895;SDS011;15241;48.374;10.876;2023-03-19T17:27:15;3.65;;;2.20;;
27895;SDS011;15241;48.374;10.876;2023-03-19T17:32:15;3.70;;;2.15;;
27895;SDS011;15241;48.374;10.876;2023-03-19T17:37:16;3.30;;;2.17;;
27895;SDS011;15241;48.374;10.876;2023-03-19T17:42:16;4.00;;;2.95;;
27895;SDS011;15241;48.374;10.876;2023-03-19T17:47:17;6.80;;;3.12;;
27895;SDS011;15241;48.374;10.876;2023-03-19T17:52:17;6.72;;;3.33;;
27895;SDS011;15241;48.374;10.876;2023-03-19T17:57:16;6.80;;;3.02;;
27895;SDS011;15241;48.374;10.876;2023-03-19T18:02:21;4.20;;;2.52;;
27895;SDS011;15241;48.374;10.876;2023-03-19T18:07:22;5.08;;;2.55;;
27895;SDS011;15241;48.374;10.876;2023-03-19T18:12:21;3.45;;;2.40;;
27895;SDS011;15241;48.374;10.876;2023-03-19T18:17:20;4.80;;;2.15;;
27895;SDS011;15241;48.374;10.876;2023-03-19T18:22:19;5.37;;;2.55;;
27895;SDS011;15241;48.374;10.876;2023-03-19T18:27:18;3.52;;;2.65;;
27895;SDS011;15241;48.374;10.876;2023-03-19T18:32:19;5.62;;;2.58;;
27895;SDS011;15241;48.374;10.876;2023-03-19T18:37:26;5.47;;;3.30;;
27895;SDS011;15241;48.374;10.876;2023-03-19T18:42:27;5.85;;;3.80;;
27895;SDS011;15241;48.374;10.876;2023-03-19T18:47:27;4.05;;;3.02;;
27895;SDS011;15241;48.374;10.876;2023-03-19T18:52:27;4.67;;;3.05;;
27895;SDS011;15241;48.374;10.876;2023-03-19T18:57:26;4.65;;;3.08;;
27895;SDS011;15241;48.374;10.876;2023-03-19T19:02:29;6.83;;;3.65;;
27895;SDS011;15241;48.374;10.876;2023-03-19T19:07:29;5.28;;;3.50;;
27895;SDS011;15241;48.374;10.876;2023-03-19T19:12:28;5.33;;;2.65;;
27895;SDS011;15241;48.374;10.876;2023-03-19T19:17:28;5.28;;;2.83;;
27895;SDS011;15241;48.374;10.876;2023-03-19T19:22:30;5.35;;;3.12;;
27895;SDS011;15241;48.374;10.876;2023-03-19T19:27:28;4.42;;;2.75;;
27895;SDS011;15241;48.374;10.876;2023-03-19T19:32:27;6.10;;;3.40;;
27895;SDS011;15241;48.374;10.876;2023-03-19T19:37:27;4.85;;;3.15;;
27895;SDS011;15241;48.374;10.876;2023-03-19T19:42:25;8.45;;;4.47;;
27895;SDS011;15241;48.374;10.876;2023-03-19T19:47:27;7.03;;;4.25;;
27895;SDS011;15241;48.374;10.876;2023-03-19T19:52:26;7.08;;;4.03;;
27895;SDS011;15241;48.374;10.876;2023-03-19T19:57:25;4.65;;;2.90;;
27895;SDS011;15241;48.374;10.876;2023-03-19T20:02:24;4.40;;;2.80;;
27895;SDS011;15241;48.374;10.876;2023-03-19T20:07:24;5.15;;;2.67;;
27895;SDS011;15241;48.374;10.876;2023-03-19T20:12:25;3.85;;;2.75;;
27895;SDS011;15241;48.374;10.876;2023-03-19T20:17:33;3.87;;;2.65;;
27895;SDS011;15241;48.374;10.876;2023-03-19T20:22:32;4.70;;;2.00;;
27895;SDS011;15241;48.374;10.876;2023-03-19T20:27:31;3.92;;;3.25;;
27895;SDS011;15241;48.374;10.876;2023-03-19T20:32:31;3.00;;;2.45;;
27895;SDS011;15241;48.374;10.876;2023-03-19T20:37:32;3.30;;;2.45;;
27895;SDS011;15241;48.374;10.876;2023-03-19T20:42:31;4.90;;;2.95;;
27895;SDS011;15241;48.374;10.876;2023-03-19T20:47:30;5.05;;;3.12;;
27895;SDS011;15241;48.374;10.876;2023-03-19T20:52:29;3.58;;;2.70;;
27895;SDS011;15241;48.374;10.876;2023-03-19T20:57:28;3.87;;;3.02;;
27895;SDS011;15241;48.374;10.876;2023-03-19T21:02:27;4.58;;;2.98;;
27895;SDS011;15241;48.374;10.876;2023-03-19T21:07:28;3.87;;;3.20;;
27895;SDS011;15241;48.374;10.876;2023-03-19T21:12:29;4.35;;;3.20;;
27895;SDS011;15241;48.374;10.876;2023-03-19T21:17:29;5.20;;;2.55;;
27895;SDS011;15241;48.374;10.876;2023-03-19T21:22:28;6.08;;;3.22;;
27895;SDS011;15241;48.374;10.876;2023-03-19T21:27:28;3.87;;;2.85;;
27895;SDS011;15241;48.374;10.876;2023-03-19T21:32:27;4.37;;;3.17;;
27895;SDS011;15241;48.374;10.876;2023-03-19T21:37:27;5.53;;;3.05;;
27895;SDS011;15241;48.374;10.876;2023-03-19T21:42:26;4.92;;;2.80;;
27895;SDS011;15241;48.374;10.876;2023-03-19T21:47:27;5.67;;;3.60;;
27895;SDS011;15241;48.374;10.876;2023-03-19T21:52:26;3.98;;;2.98;;
27895;SDS011;15241;48.374;10.876;2023-03-19T21:57:25;5.58;;;2.83;;
27895;SDS011;15241;48.374;10.876;2023-03-19T22:02:35;5.53;;;3.15;;
27895;SDS011;15241;48.374;10.876;2023-03-19T22:07:35;3.65;;;2.92;;
27895;SDS011;15241;48.374;10.876;2023-03-19T22:12:34;3.15;;;2.60;;
27895;SDS011;15241;48.374;10.876;2023-03-19T22:17:34;4.12;;;3.20;;
27895;SDS011;15241;48.374;10.876;2023-03-19T22:22:33;4.70;;;2.92;;
27895;SDS011;15241;48.374;10.876;2023-03-19T22:27:32;4.12;;;2.92;;
27895;SDS011;15241;48.374;10.876;2023-03-19T22:32:31;4.03;;;3.00;;
27895;SDS011;15241;48.374;10.876;2023-03-19T22:37:30;5.90;;;3.08;;
27895;SDS011;15241;48.374;10.876;2023-03-19T22:42:29;3.85;;;3.00;;
27895;SDS011;15241;48.374;10.876;2023-03-19T22:47:28;4.67;;;3.50;;
27895;SDS011;15241;48.374;10.876;2023-03-19T22:52:29;3.58;;;3.05;;
27895;SDS011;15241;48.374;10.876;2023-03-19T22:57:28;4.15;;;3.55;;
27895;SDS011;15241;48.374;10.876;2023-03-19T23:02:27;3.72;;;2.83;;
27895;SDS011;15241;48.374;10.876;2023-03-19T23:07:26;4.17;;;3.08;;
27895;SDS011;15241;48.374;10.876;2023-03-19T23:12:25;3.08;;;2.67;;
27895;SDS011;15241;48.374;10.876;2023-03-19T23:17:24;3.05;;;2.72;;
27895;SDS011;15241;48.374;10.876;2023-03-19T23:22:23;3.15;;;2.80;;
27895;SDS011;15241;48.374;10.876;2023-03-19T23:27:22;4.42;;;3.33;;
27895;SDS011;15241;48.374;10.876;2023-03-19T23:32:22;3.62;;;2.98;;
27895;SDS011;15241;48.374;10.876;2023-03-19T23:37:21;5.10;;;3.05;;
27895;SDS011;15241;48.374;10.876;2023-03-19T23:42:23;4.45;;;2.98;;
27895;SDS011;15241;48.374;10.876;2023-03-19T23:47:24;3.60;;;3.20;;
27895;SDS011;15241;48.374;10.876;2023-03-19T23:52:23;4.00;;;2.95;;
27895;SDS011;15241;48.374;10.876;2023-03-19T23:57:22;4.25;;;3.00;;
